createdAt,value
2019-02-10T00:00:55.210Z,99334.27
2019-02-10T00:03:38.487Z,99317.81
2019-02-10T00:06:28.883Z,99309.54
2019-02-10T00:09:11.454Z,99311.88
2019-02-10T00:12:01.822Z,99304.62
2019-02-10T00:14:45.059Z,99304.38
2019-02-10T00:17:35.403Z,99304.08
2019-02-10T00:20:18.123Z,99296.75
2019-02-10T00:23:08.519Z,99281.94
2019-02-10T00:25:51.387Z,99276.20
2019-02-10T00:28:41.773Z,99273.81
2019-02-10T00:31:25.102Z,99263.62
2019-02-10T00:34:08.321Z,99246.34
2019-02-10T00:36:58.720Z,99250.28
2019-02-10T00:39:41.933Z,99245.97
2019-02-10T00:42:32.332Z,99236.45
2019-02-10T00:45:15.678Z,99233.52
2019-02-10T00:48:06.052Z,99217.30
2019-02-10T00:50:49.401Z,99224.23
2019-02-10T00:53:39.801Z,99225.13
2019-02-10T00:56:22.602Z,99201.76
2019-02-10T00:59:12.939Z,99189.60
2019-02-10T01:01:56.332Z,99177.97
2019-02-10T01:04:46.687Z,99182.83
2019-02-10T01:07:29.712Z,99177.07
2019-02-10T01:13:44.879Z,99171.22
2019-02-10T01:16:35.238Z,99159.14
2019-02-10T01:19:17.771Z,99147.17
2019-02-10T01:25:31.564Z,99124.64
2019-02-10T01:28:21.960Z,99129.50
2019-02-10T01:31:05.232Z,99115.45
2019-02-10T01:33:55.622Z,99118.34
2019-02-10T01:36:38.369Z,99101.97
2019-02-10T01:39:28.736Z,99099.80
2019-02-10T01:42:12.376Z,99094.75
2019-02-10T01:45:02.705Z,99102.06
2019-02-10T01:47:45.334Z,99074.59
2019-02-10T01:50:35.679Z,99088.64
2019-02-10T01:53:18.725Z,99074.00
2019-02-10T01:56:09.121Z,99065.72
2019-02-10T01:58:52.061Z,99066.88
2019-02-10T02:01:42.434Z,99062.24
2019-02-10T02:04:25.823Z,99055.58
2019-02-10T02:07:16.277Z,99047.30
2019-02-10T02:09:59.171Z,99041.09
2019-02-10T02:12:41.898Z,99036.01
2019-02-10T02:15:32.256Z,99027.14
2019-02-10T02:18:15.503Z,99008.77
2019-02-10T02:20:58.713Z,99003.72
2019-02-10T02:23:49.072Z,98992.98
2019-02-10T02:26:32.349Z,98975.27
2019-02-10T02:29:22.737Z,98963.26
2019-02-10T02:32:05.428Z,98945.81
2019-02-10T02:34:55.810Z,98943.77
2019-02-10T02:37:39.229Z,98940.81
2019-02-10T02:40:29.620Z,98924.77
2019-02-10T02:43:13.104Z,98914.17
2019-02-10T02:46:03.800Z,98907.98
2019-02-10T02:48:47.296Z,98907.42
2019-02-10T02:51:37.655Z,98889.88
2019-02-10T02:54:20.851Z,98890.17
2019-02-10T02:57:11.301Z,98877.98
2019-02-10T03:00:14.619Z,98860.83
2019-02-10T03:06:52.122Z,98847.69
2019-02-10T03:09:36.504Z,98835.69
2019-02-10T03:12:26.905Z,98828.34
2019-02-10T03:15:09.658Z,98823.26
2019-02-10T03:18:00.049Z,98809.56
2019-02-10T03:20:42.776Z,98778.66
2019-02-10T03:23:33.215Z,98791.11
2019-02-10T03:26:17.592Z,98785.31
2019-02-10T03:29:26.968Z,98786.63
2019-02-10T03:32:11.626Z,98754.88
2019-02-10T03:35:02.328Z,98754.95
2019-02-10T03:37:46.547Z,98753.50
2019-02-10T03:40:37.119Z,98734.76
2019-02-10T03:43:20.186Z,98729.48
2019-02-10T03:46:05.680Z,98709.54
2019-02-10T03:49:08.213Z,98708.58
2019-02-10T03:52:00.343Z,98696.80
2019-02-10T03:54:43.773Z,98690.41
2019-02-10T03:57:34.134Z,98684.27
2019-02-10T04:00:16.680Z,98671.27
2019-02-10T04:03:07.089Z,98662.62
2019-02-10T04:05:50.062Z,98657.08
2019-02-10T04:08:40.425Z,98638.20
2019-02-10T04:11:23.683Z,98629.75
2019-02-10T04:17:28.033Z,98613.75
2019-02-10T04:20:18.343Z,98606.16
2019-02-10T04:23:01.180Z,98588.88
2019-02-10T04:25:51.544Z,98582.95
2019-02-10T04:28:34.072Z,98568.10
2019-02-10T04:31:27.420Z,98543.63
2019-02-10T04:34:31.640Z,98530.90
2019-02-10T04:37:24.385Z,98525.01
2019-02-10T04:40:07.053Z,98504.73
2019-02-10T04:42:57.424Z,98505.58
2019-02-10T04:46:01.789Z,98493.11
2019-02-10T04:48:52.143Z,98472.47
2019-02-10T04:51:35.339Z,98493.41
2019-02-10T04:54:25.757Z,98481.89
2019-02-10T04:57:09.021Z,98460.78
2019-02-10T05:00:00.000Z,98434.98
2019-02-10T05:02:43.311Z,98424.02
2019-02-10T05:05:36.837Z,98436.65
2019-02-10T05:08:20.057Z,98435.80
2019-02-10T05:11:10.403Z,98402.73
2019-02-10T05:13:53.908Z,98385.82
2019-02-10T05:16:45.002Z,98377.41
2019-02-10T05:19:48.490Z,98350.84
2019-02-10T05:22:31.122Z,98332.36
2019-02-10T05:25:21.440Z,98329.45
2019-02-10T05:28:04.440Z,98307.49
2019-02-10T05:30:54.781Z,98305.16
2019-02-10T05:33:37.684Z,98296.35
2019-02-10T05:36:47.125Z,98289.06
2019-02-10T05:39:32.824Z,98264.88
2019-02-10T05:42:23.329Z,98245.25
2019-02-10T05:45:06.808Z,98249.17
2019-02-10T05:47:58.024Z,98236.09
2019-02-10T05:50:41.451Z,98214.09
2019-02-10T05:56:45.360Z,98197.28
2019-02-10T05:59:54.735Z,98202.30
2019-02-10T06:02:38.062Z,98192.27
2019-02-10T06:05:41.970Z,98173.32
2019-02-10T06:08:33.900Z,98174.86
2019-02-10T06:11:44.727Z,98166.08
2019-02-10T06:14:27.908Z,98152.23
2019-02-10T06:20:20.502Z,98159.86
2019-02-10T06:23:11.090Z,98143.55
2019-02-10T06:26:13.954Z,98137.66
2019-02-10T06:29:04.335Z,98137.44
2019-02-10T06:31:47.240Z,98127.59
2019-02-10T06:34:37.670Z,98122.97
2019-02-10T06:37:23.524Z,98113.99
2019-02-10T06:40:13.891Z,98116.03
2019-02-10T06:42:56.869Z,98096.19
2019-02-10T06:45:47.293Z,98080.16
2019-02-10T06:48:30.521Z,98083.16
2019-02-10T06:51:20.924Z,98075.34
2019-02-10T06:54:11.281Z,98060.19
2019-02-10T06:56:54.367Z,98074.61
2019-02-10T07:00:03.566Z,98043.56
2019-02-10T07:03:11.587Z,98041.67
2019-02-10T07:05:54.450Z,98050.71
2019-02-10T07:08:44.800Z,98030.79
2019-02-10T07:11:27.928Z,98027.84
2019-02-10T07:14:38.308Z,97996.07
2019-02-10T07:17:40.556Z,97987.97
2019-02-10T07:20:50.442Z,97966.15
2019-02-10T07:23:52.682Z,97953.53
2019-02-10T07:27:06.288Z,97943.66
2019-02-10T07:30:08.041Z,97951.19
2019-02-10T07:32:58.474Z,97950.02
2019-02-10T07:36:00.228Z,97926.08
2019-02-10T07:39:19.751Z,97908.91
2019-02-10T07:42:21.827Z,97918.14
2019-02-10T07:45:50.238Z,97923.52
2019-02-10T07:48:46.763Z,97900.08
2019-02-10T07:51:58.979Z,97891.27
2019-02-10T07:55:27.426Z,97894.16
2019-02-10T07:58:09.849Z,97875.70
2019-02-10T08:00:55.947Z,97856.16
2019-02-10T08:04:22.755Z,97860.93
2019-02-10T08:07:25.791Z,97874.98
2019-02-10T08:13:46.309Z,97855.81
2019-02-10T08:17:14.730Z,97850.44
2019-02-10T08:20:20.048Z,97841.50
2019-02-10T08:23:48.480Z,97846.77
2019-02-10T08:26:51.061Z,97838.30
2019-02-10T08:30:03.607Z,97829.63
2019-02-10T08:32:53.995Z,97812.56
2019-02-10T08:36:22.486Z,97823.77
2019-02-10T08:39:27.940Z,97825.80
2019-02-10T08:46:18.592Z,97808.97
2019-02-10T08:49:32.507Z,97806.22
2019-02-10T08:52:21.164Z,97798.84
2019-02-10T08:55:14.157Z,97792.61
2019-02-10T08:57:57.339Z,97779.50
2019-02-10T09:00:47.708Z,97793.32
2019-02-10T09:03:30.319Z,97790.84
2019-02-10T09:06:20.759Z,97756.89
2019-02-10T09:09:11.155Z,97770.64
2019-02-10T09:11:54.392Z,97800.83
2019-02-10T09:14:37.368Z,97761.55
2019-02-10T09:17:27.789Z,97761.39
2019-02-10T09:20:11.019Z,97770.35
2019-02-10T09:26:30.036Z,97764.72
2019-02-10T09:29:20.744Z,97763.55
2019-02-10T09:32:03.637Z,97764.66
2019-02-10T09:34:54.034Z,97765.48
2019-02-10T09:37:37.561Z,97761.44
2019-02-10T09:40:27.932Z,97757.25
2019-02-10T09:43:10.798Z,97777.09
2019-02-10T09:46:01.157Z,97761.56
2019-02-10T09:49:03.455Z,97765.87
2019-02-10T09:51:56.682Z,97773.53
2019-02-10T09:54:47.086Z,97780.55
2019-02-10T09:57:29.813Z,97763.61
2019-02-10T10:03:32.124Z,97760.74
2019-02-10T10:06:22.732Z,97755.59
2019-02-10T10:09:06.066Z,97755.13
2019-02-10T10:11:56.441Z,97746.66
2019-02-10T10:14:39.331Z,97727.81
2019-02-10T10:20:57.480Z,97748.47
2019-02-10T10:23:48.504Z,97730.56
2019-02-10T10:26:38.917Z,97734.27
2019-02-10T10:29:21.768Z,97762.55
2019-02-10T10:35:21.060Z,97729.71
2019-02-10T10:38:11.483Z,97725.91
2019-02-10T10:40:58.296Z,97734.16
2019-02-10T10:43:48.720Z,97732.48
2019-02-10T10:46:36.809Z,97737.83
2019-02-10T10:52:16.259Z,97727.94
2019-02-10T10:55:18.873Z,97715.28
2019-02-10T10:58:09.859Z,97707.18
2019-02-10T11:00:53.092Z,97694.86
2019-02-10T11:03:43.569Z,97700.01
2019-02-10T11:06:26.865Z,97689.98
2019-02-10T11:09:17.181Z,97697.25
2019-02-10T11:12:00.397Z,97687.83
2019-02-10T11:14:43.109Z,97680.90
2019-02-10T11:17:33.439Z,97687.70
2019-02-10T11:20:16.703Z,97685.67
2019-02-10T11:23:07.190Z,97672.18
2019-02-10T11:25:50.558Z,97672.76
2019-02-10T11:28:40.921Z,97664.54
2019-02-10T11:31:23.632Z,97675.15
2019-02-10T11:34:13.989Z,97673.23
2019-02-10T11:37:17.015Z,97664.14
2019-02-10T11:40:07.557Z,97663.91
2019-02-10T11:42:50.874Z,97663.91
2019-02-10T11:45:41.280Z,97673.43
2019-02-10T11:48:24.505Z,97649.69
2019-02-10T11:51:14.974Z,97653.26
2019-02-10T11:54:02.241Z,97646.19
2019-02-10T11:56:52.630Z,97657.77
2019-02-10T11:59:36.668Z,97649.55
2019-02-10T12:02:27.491Z,97659.48
2019-02-10T12:05:10.667Z,97650.30
2019-02-10T12:08:01.103Z,97669.77
2019-02-10T12:10:43.761Z,97643.73
2019-02-10T12:13:34.170Z,97646.36
2019-02-10T12:16:17.386Z,97651.48
2019-02-10T12:19:07.768Z,97651.95
2019-02-10T12:21:51.415Z,97645.98
2019-02-10T12:24:41.790Z,97653.86
2019-02-10T12:27:24.855Z,97646.13
2019-02-10T12:30:15.366Z,97646.73
2019-02-10T12:32:58.504Z,97642.59
2019-02-10T12:35:48.872Z,97671.23
2019-02-10T12:38:32.195Z,97674.02
2019-02-10T12:41:22.538Z,97679.84
2019-02-10T12:44:05.302Z,97683.67
2019-02-10T12:46:55.756Z,97683.93
2019-02-10T12:49:58.335Z,97688.69
2019-02-10T12:52:48.753Z,97681.67
2019-02-10T12:55:31.443Z,97678.80
2019-02-10T12:58:21.862Z,97699.09
2019-02-10T13:01:05.241Z,97698.00
2019-02-10T13:04:16.526Z,97710.55
2019-02-10T13:06:59.612Z,97695.16
2019-02-10T13:09:49.986Z,97695.98
2019-02-10T13:12:40.404Z,97699.20
2019-02-10T13:15:23.057Z,97703.00
2019-02-10T13:18:07.130Z,97699.57
2019-02-10T13:21:08.207Z,97705.28
2019-02-10T13:27:09.028Z,97712.73
2019-02-10T13:29:59.362Z,97705.04
2019-02-10T13:32:42.946Z,97703.13
2019-02-10T13:35:33.777Z,97695.71
2019-02-10T13:38:17.267Z,97708.21
2019-02-10T13:41:07.736Z,97704.30
2019-02-10T13:43:51.400Z,97709.81
2019-02-10T13:46:41.774Z,97705.16
2019-02-10T13:49:25.196Z,97706.48
2019-02-10T13:52:15.622Z,97698.62
2019-02-10T13:54:58.317Z,97707.33
2019-02-10T13:57:48.699Z,97711.02
2019-02-10T14:00:31.338Z,97710.79
2019-02-10T14:03:21.760Z,97701.72
2019-02-10T14:06:04.762Z,97711.36
2019-02-10T14:08:55.150Z,97708.50
2019-02-10T14:11:38.457Z,97706.59
2019-02-10T14:14:28.876Z,97709.94
2019-02-10T14:17:11.862Z,97706.12
2019-02-10T14:19:59.494Z,97704.81
2019-02-10T14:22:49.847Z,97709.44
2019-02-10T14:25:33.811Z,97719.29
2019-02-10T14:28:24.291Z,97725.75
2019-02-10T14:31:07.829Z,97709.27
2019-02-10T14:33:58.187Z,97705.04
2019-02-10T14:36:41.359Z,97722.51
2019-02-10T14:39:31.665Z,97720.35
2019-02-10T14:42:34.569Z,97722.29
2019-02-10T14:45:24.915Z,97729.56
2019-02-10T14:48:07.476Z,97719.20
2019-02-10T14:50:58.144Z,97723.69
2019-02-10T14:53:41.085Z,97733.02
2019-02-10T14:56:31.457Z,97729.09
2019-02-10T14:59:14.680Z,97726.87
2019-02-10T15:02:05.056Z,97729.83
2019-02-10T15:04:48.400Z,97729.30
2019-02-10T15:07:38.845Z,97732.52
2019-02-10T15:10:22.350Z,97730.52
2019-02-10T15:13:12.085Z,97728.52
2019-02-10T15:15:54.949Z,97733.97
2019-02-10T15:18:38.134Z,97738.22
2019-02-10T15:21:47.554Z,97753.53
2019-02-10T15:24:30.718Z,97768.17
2019-02-10T15:27:21.098Z,97765.17
2019-02-10T15:30:04.175Z,97760.21
2019-02-10T15:32:54.551Z,97766.67
2019-02-10T15:35:37.421Z,97753.11
2019-02-10T15:38:27.828Z,97757.06
2019-02-10T15:41:10.904Z,97749.88
2019-02-10T15:44:01.231Z,97761.40
2019-02-10T15:46:44.009Z,97761.40
2019-02-10T15:49:27.042Z,97768.53
2019-02-10T15:52:17.399Z,97771.88
2019-02-10T15:55:00.346Z,97767.16
2019-02-10T15:57:53.266Z,97760.93
2019-02-10T16:00:38.202Z,97762.17
2019-02-10T16:03:28.586Z,97755.70
2019-02-10T16:06:11.277Z,97782.81
2019-02-10T16:09:01.750Z,97780.92
2019-02-10T16:11:45.197Z,97781.04
2019-02-10T16:14:35.614Z,97778.22
2019-02-10T16:17:18.304Z,97763.03
2019-02-10T16:20:10.400Z,97771.16
2019-02-10T16:22:53.462Z,97773.84
2019-02-10T16:25:43.871Z,97785.30
2019-02-10T16:28:26.737Z,97793.59
2019-02-10T16:31:17.154Z,97780.97
2019-02-10T16:34:00.634Z,97791.39
2019-02-10T16:36:51.121Z,97804.60
2019-02-10T16:39:33.829Z,97783.54
2019-02-10T16:42:24.251Z,97820.61
2019-02-10T16:45:07.731Z,97807.08
2019-02-10T16:47:58.098Z,97821.68
2019-02-10T16:50:41.113Z,97832.85
2019-02-10T16:53:31.544Z,97839.72
2019-02-10T16:56:14.684Z,97852.34
2019-02-10T16:59:05.137Z,97845.80
2019-02-10T17:01:49.292Z,97850.50
2019-02-10T17:04:39.695Z,97858.33
2019-02-10T17:07:21.932Z,97858.57
2019-02-10T17:10:04.042Z,97869.19
2019-02-10T17:12:46.741Z,97879.89
2019-02-10T17:15:37.151Z,97893.47
2019-02-10T17:18:20.358Z,97889.31
2019-02-10T17:21:10.776Z,97911.33
2019-02-10T17:23:53.660Z,97914.26
2019-02-10T17:27:02.195Z,97907.56
2019-02-10T17:29:54.317Z,97914.25
2019-02-10T17:32:44.744Z,97921.72
2019-02-10T17:35:29.664Z,97928.80
2019-02-10T17:38:40.742Z,97935.84
2019-02-10T17:41:29.066Z,97938.57
2019-02-10T17:48:09.627Z,97947.76
2019-02-10T17:51:00.023Z,97952.41
2019-02-10T17:53:50.381Z,97957.41
2019-02-10T17:56:33.011Z,97973.89
2019-02-10T17:59:23.436Z,97974.16
2019-02-10T18:02:06.252Z,97961.41
2019-02-10T18:04:56.662Z,97972.45
2019-02-10T18:07:39.310Z,98001.81
2019-02-10T18:10:29.737Z,97994.54
2019-02-10T18:13:12.918Z,98006.38
2019-02-10T18:16:22.126Z,98009.01
2019-02-10T18:19:23.833Z,98023.12
2019-02-10T18:22:33.136Z,98037.89
2019-02-10T18:25:35.407Z,98041.53
2019-02-10T18:28:44.709Z,98056.47
2019-02-10T18:31:46.639Z,98057.39
2019-02-10T18:34:44.758Z,98057.98
2019-02-10T18:37:42.539Z,98069.33
2019-02-10T18:40:56.715Z,98078.85
2019-02-10T18:44:05.969Z,98084.44
2019-02-10T18:46:57.994Z,98090.61
2019-02-10T18:49:50.001Z,98086.13
2019-02-10T18:52:59.212Z,98091.34
2019-02-10T18:55:55.423Z,98089.94
2019-02-10T18:59:04.651Z,98099.10
2019-02-10T19:02:06.194Z,98110.01
2019-02-10T19:05:15.403Z,98114.30
2019-02-10T19:08:04.639Z,98116.80
2019-02-10T19:11:32.939Z,98124.46
2019-02-10T19:14:29.653Z,98127.26
2019-02-10T19:17:38.869Z,98149.44
2019-02-10T19:20:40.299Z,98153.66
2019-02-10T19:23:49.564Z,98172.84
2019-02-10T19:26:41.508Z,98186.66
2019-02-10T19:29:50.704Z,98191.18
2019-02-10T19:32:59.971Z,98203.70
2019-02-10T19:36:09.225Z,98210.03
2019-02-10T19:39:10.640Z,98225.00
2019-02-10T19:42:19.913Z,98236.39
2019-02-10T19:45:13.884Z,98242.41
2019-02-10T19:48:14.448Z,98246.14
2019-02-10T19:51:23.682Z,98261.39
2019-02-10T19:54:20.686Z,98271.47
2019-02-10T19:57:29.958Z,98281.86
2019-02-10T20:00:22.975Z,98291.29
2019-02-10T20:03:32.205Z,98299.24
2019-02-10T20:06:32.016Z,98306.67
2019-02-10T20:09:41.209Z,98313.38
2019-02-10T20:12:42.642Z,98330.33
2019-02-10T20:15:41.129Z,98336.30
2019-02-10T20:18:32.501Z,98340.22
2019-02-10T20:21:41.793Z,98356.16
2019-02-10T20:24:44.028Z,98359.27
2019-02-10T20:27:53.306Z,98366.30
2019-02-10T20:31:06.033Z,98378.89
2019-02-10T20:34:14.363Z,98391.48
2019-02-10T20:37:23.570Z,98400.84
2019-02-10T20:40:17.277Z,98401.83
2019-02-10T20:43:26.560Z,98414.73
2019-02-10T20:46:22.724Z,98426.07
2019-02-10T20:49:24.516Z,98436.90
2019-02-10T20:52:33.796Z,98439.88
2019-02-10T20:55:24.857Z,98453.45
2019-02-10T20:58:34.107Z,98457.66
2019-02-10T21:01:36.217Z,98473.36
2019-02-10T21:04:45.495Z,98479.42
2019-02-10T21:07:53.587Z,98496.67
2019-02-10T21:11:02.818Z,98506.45
2019-02-10T21:14:12.093Z,98513.96
2019-02-10T21:17:13.557Z,98527.77
2019-02-10T21:20:07.150Z,98538.59
2019-02-10T21:23:16.377Z,98540.95
2019-02-10T21:26:18.787Z,98551.27
2019-02-10T21:29:21.121Z,98557.15
2019-02-10T21:32:25.646Z,98576.48
2019-02-10T21:35:35.050Z,98590.56
2019-02-10T21:38:36.628Z,98601.08
2019-02-10T21:41:45.872Z,98603.94
2019-02-10T21:44:33.807Z,98623.75
2019-02-10T21:47:23.228Z,98638.53
2019-02-10T21:50:13.606Z,98643.73
2019-02-10T21:52:56.407Z,98652.98
2019-02-10T21:55:46.751Z,98663.61
2019-02-10T21:58:30.234Z,98668.86
2019-02-10T22:01:20.664Z,98682.42
2019-02-10T22:04:04.102Z,98682.37
2019-02-10T22:06:54.520Z,98704.52
2019-02-10T22:09:37.403Z,98713.48
2019-02-10T22:12:27.819Z,98727.48
2019-02-10T22:15:10.817Z,98733.77
2019-02-10T22:18:01.271Z,98753.42
2019-02-10T22:20:44.639Z,98771.78
2019-02-10T22:23:35.132Z,98779.19
2019-02-10T22:26:20.337Z,98789.34
2019-02-10T22:29:10.827Z,98800.31
2019-02-10T22:31:53.597Z,98814.31
2019-02-10T22:34:44.202Z,98812.47
2019-02-10T22:37:27.734Z,98828.53
2019-02-10T22:40:18.266Z,98834.26
2019-02-10T22:43:01.866Z,98833.03
2019-02-10T22:45:54.035Z,98839.88
2019-02-10T22:48:57.030Z,98855.92
2019-02-10T22:51:47.436Z,98867.97
2019-02-10T22:54:30.503Z,98872.34
2019-02-10T22:57:20.977Z,98878.32
2019-02-10T23:00:06.113Z,98896.64
2019-02-10T23:03:17.023Z,98896.27
2019-02-10T23:05:59.976Z,98913.68
2019-02-10T23:08:50.376Z,98929.41
2019-02-10T23:11:33.040Z,98938.67
2019-02-10T23:14:23.457Z,98952.05
2019-02-10T23:17:07.064Z,98952.52
2019-02-10T23:19:50.807Z,98973.86
2019-02-10T23:22:41.268Z,98984.12
2019-02-10T23:25:24.362Z,98988.11
2019-02-10T23:28:14.773Z,99002.08
2019-02-10T23:30:57.388Z,99005.92
2019-02-10T23:33:47.839Z,99016.82
2019-02-10T23:36:31.173Z,99026.66
2019-02-10T23:39:21.723Z,99034.95
2019-02-10T23:42:04.214Z,99043.16
2019-02-10T23:44:54.634Z,99049.95
2019-02-10T23:47:37.456Z,99054.15
2019-02-10T23:50:27.849Z,99061.95
2019-02-10T23:53:30.627Z,99070.81
2019-02-10T23:56:20.985Z,99081.41
2019-02-10T23:59:04.372Z,99085.55
